Time;durP1;ratioP1;P1;durP2;ratioP2;P2;SDS_P1;SDS_P2;PMS_P1;PMS_P2;Temp;Humidity;BMP_temperature;BMP_pressure;BME280_temperature;BME280_humidity;BME280_pressure;Samples;Min_cycle;Max_cycle;Signal;HPM_P1;HPM_P2
2023/03/29 00:00:18;;;;;;;;;16.50;15.75;;;;;13.18;51.34;101174.81;2103857;28;47471;-62
2023/03/29 00:01:20;;;;;;;;;13.00;13.00;;;;;13.17;51.23;101173.94;2112788;27;46822;-64
2023/03/29 00:02:21;;;;;;;;;15.40;13.20;;;;;13.18;51.29;101174.81;2113248;27;46697;-61
2023/03/29 00:03:21;;;;;;;;;10.25;10.00;;;;;13.16;51.26;101164.22;2113252;27;46823;-62
2023/03/29 00:04:22;;;;;;;;;13.50;13.00;;;;;13.16;51.19;101160.66;2121293;27;46609;-62
2023/03/29 00:05:24;;;;;;;;;10.00;10.00;;;;;13.15;51.27;101173.13;2112624;27;46461;-63
2023/03/29 00:06:30;;;;;;;;;10.60;10.60;;;;;13.16;51.26;101166.00;2090518;28;46684;-63
2023/03/29 00:07:32;;;;;;;;;12.80;11.80;;;;;13.15;51.09;101161.59;2098222;27;46484;-63
2023/03/29 00:08:39;;;;;;;;;12.80;11.80;;;;;13.17;51.26;101168.63;2112847;27;46444;-64
2023/03/29 00:09:39;;;;;;;;;12.20;11.20;;;;;13.17;51.24;101165.97;2113080;27;46458;-63
2023/03/29 00:10:40;;;;;;;;;10.25;10.25;;;;;13.18;51.18;101169.50;2113363;27;46362;-65
2023/03/29 00:11:41;;;;;;;;;13.00;13.00;;;;;13.18;51.16;101159.75;2112659;27;45248;-63
2023/03/29 00:12:41;;;;;;;;;14.75;14.75;;;;;13.19;51.05;101155.28;2113228;27;46062;-64
2023/03/29 00:13:42;;;;;;;;;12.00;12.00;;;;;13.19;51.29;101148.16;2105725;27;46134;-62
2023/03/29 00:14:43;;;;;;;;;10.60;9.00;;;;;13.20;51.23;101152.56;2110282;27;46734;-63
2023/03/29 00:15:43;;;;;;;;;9.50;9.50;;;;;13.19;51.25;101149.94;2112780;27;46789;-64
2023/03/29 00:16:45;;;;;;;;;11.25;11.00;;;;;13.18;51.18;101148.16;2113360;27;46099;-65
2023/03/29 00:17:45;;;;;;;;;10.00;10.00;;;;;13.16;51.05;101145.56;2109810;27;47013;-64
2023/03/29 00:18:46;;;;;;;;;13.25;12.00;;;;;13.16;51.14;101152.66;2104628;28;46731;-63
2023/03/29 00:19:46;;;;;;;;;10.75;10.75;;;;;13.15;51.18;101151.78;2110612;27;46299;-62
2023/03/29 00:20:55;;;;;;;;;14.00;12.75;;;;;13.16;51.33;101144.69;2110681;27;46405;-64
2023/03/29 00:21:55;;;;;;;;;11.00;9.20;;;;;13.16;51.33;101148.22;2113270;27;46741;-63
2023/03/29 00:22:55;;;;;;;;;11.75;10.50;;;;;13.17;51.33;101149.97;2112641;27;46580;-64
2023/03/29 00:23:56;;;;;;;;;11.25;10.25;;;;;13.17;51.13;101146.44;2112986;27;46269;-63
2023/03/29 00:24:57;;;;;;;;;10.00;10.00;;;;;13.17;51.13;101149.97;2112660;27;46269;-63
2023/03/29 00:25:57;;;;;;;;;13.50;11.50;;;;;13.18;51.06;101145.50;2108675;27;45387;-64
2023/03/29 00:26:58;;;;;;;;;10.25;10.00;;;;;13.19;50.88;101144.63;2104356;28;47572;-63
2023/03/29 00:27:58;;;;;;;;;9.75;9.75;;;;;13.19;50.91;101145.50;2105503;27;46452;-63
2023/03/29 00:28:58;;;;;;;;;10.50;10.25;;;;;13.21;50.84;101142.78;2098803;28;46349;-64
2023/03/29 00:29:59;;;;;;;;;13.00;11.00;;;;;13.21;50.72;101141.03;2103661;28;46376;-63
2023/03/29 00:31:08;;;;;;;;;12.50;12.00;;;;;13.22;50.75;101139.25;2101093;27;46324;-63
2023/03/29 00:32:09;;;;;;;;;11.40;11.00;;;;;13.22;50.81;101145.44;2095984;28;45551;-62
2023/03/29 00:33:10;;;;;;;;;10.75;8.50;;;;;13.23;50.84;101146.31;2096142;28;46992;-63
2023/03/29 00:34:10;;;;;;;;;9.20;8.40;;;;;13.22;50.76;101139.25;2100588;28;46659;-65
2023/03/29 00:35:11;;;;;;;;;12.25;12.00;;;;;13.21;50.69;101141.03;2104280;28;46427;-62
2023/03/29 00:36:11;;;;;;;;;7.75;7.75;;;;;13.21;50.75;101146.38;2095426;28;46326;-63
2023/03/29 00:37:13;;;;;;;;;10.00;10.00;;;;;13.22;50.49;101144.56;2095652;28;46811;-63
2023/03/29 00:38:14;;;;;;;;;9.40;9.20;;;;;13.21;50.81;101146.38;2104339;28;46709;-63
2023/03/29 00:39:15;;;;;;;;;10.00;9.20;;;;;13.23;50.58;101139.19;2104552;28;46756;-62
2023/03/29 00:40:15;;;;;;;;;8.00;8.00;;;;;13.23;50.48;101141.88;2104153;28;48329;-64
2023/03/29 00:41:16;;;;;;;;;6.00;6.00;;;;;13.23;50.58;101147.19;2078197;28;46931;-62
2023/03/29 00:42:16;;;;;;;;;10.50;9.25;;;;;13.22;50.26;101145.44;2074113;28;45286;-63
2023/03/29 00:43:17;;;;;;;;;11.25;9.75;;;;;13.22;50.19;101144.56;2070331;28;45893;-63
2023/03/29 00:44:55;;;;;;;;;8.75;6.75;;;;;13.22;50.41;101147.25;2070312;28;46348;-65
2023/03/29 00:45:55;;;;;;;;;11.20;10.80;;;;;13.20;50.18;101144.59;2078274;28;46591;-63
2023/03/29 00:46:56;;;;;;;;;9.50;9.50;;;;;13.20;50.31;101141.91;2078398;28;46093;-64
2023/03/29 00:48:02;;;;;;;;;11.00;9.00;;;;;13.20;50.17;101141.91;2070726;28;46801;-63
2023/03/29 00:49:12;;;;;;;;;9.20;9.20;;;;;13.18;50.25;101149.06;2063781;28;46574;-63
2023/03/29 00:50:21;;;;;;;;;8.00;7.20;;;;;13.18;50.22;101140.19;2073873;28;47974;-65
2023/03/29 00:51:25;;;;;;;;;8.60;8.60;;;;;13.18;50.13;101145.50;2078612;28;46986;-63
2023/03/29 00:52:29;;;;;;;;;11.80;10.60;;;;;13.18;50.25;101148.16;2069674;28;46551;-64
2023/03/29 00:53:34;;;;;;;;;8.40;8.20;;;;;13.19;50.19;101148.16;2070508;28;46940;-63
2023/03/29 00:54:36;;;;;;;;;10.00;8.20;;;;;13.18;50.19;101138.41;2078166;28;46998;-65
2023/03/29 00:55:47;;;;;;;;;7.40;7.40;;;;;13.20;50.11;101147.25;2086934;28;46429;-63
2023/03/29 00:56:50;;;;;;;;;10.80;10.00;;;;;13.21;49.96;101143.69;2087848;28;46039;-62
2023/03/29 00:57:52;;;;;;;;;7.00;7.00;;;;;13.22;50.26;101147.25;2088751;28;45748;-63
2023/03/29 00:59:05;;;;;;;;;8.60;7.60;;;;;13.22;50.18;101156.09;2087544;28;46962;-62
2023/03/29 01:00:08;;;;;;;;;9.00;9.00;;;;;13.23;50.19;101156.97;2087435;28;46493;-64
2023/03/29 01:01:16;;;;;;;;;9.80;8.40;;;;;13.21;50.12;101149.03;2088779;28;46076;-63
2023/03/29 01:02:21;;;;;;;;;5.60;5.60;;;;;13.22;50.15;101140.13;2087776;28;46746;-62
2023/03/29 01:03:29;;;;;;;;;7.40;7.00;;;;;13.23;50.04;101147.19;2087736;28;46763;-64
2023/03/29 01:04:36;;;;;;;;;5.00;5.00;;;;;13.23;50.11;101147.19;2087515;28;46613;-63
2023/03/29 01:05:42;;;;;;;;;8.00;7.40;;;;;13.21;50.12;101143.69;2088746;28;46073;-63
2023/03/29 01:06:57;;;;;;;;;8.00;8.00;;;;;13.22;49.88;101139.25;2087861;28;47275;-63
2023/03/29 01:08:05;;;;;;;;;9.20;8.80;;;;;13.20;50.22;101139.25;2088081;28;46133;-63
2023/03/29 01:09:09;;;;;;;;;8.60;8.60;;;;;13.19;50.04;101137.50;2088233;28;45464;-65
2023/03/29 01:10:15;;;;;;;;;7.00;7.00;;;;;13.21;50.17;101134.78;2081050;28;47721;-63
2023/03/29 01:11:52;;;;;;;;;7.00;7.00;;;;;13.21;50.18;101134.78;2072188;28;46483;-63
2023/03/29 01:12:57;;;;;;;;;7.80;6.80;;;;;13.21;50.07;101141.03;2041154;28;46048;-63
2023/03/29 01:14:05;;;;;;;;;7.40;6.80;;;;;13.21;50.17;101129.47;2054385;28;46674;-63
2023/03/29 01:15:10;;;;;;;;;9.20;9.20;;;;;13.20;50.09;101133.91;2055299;28;46951;-63
2023/03/29 01:16:12;;;;;;;;;7.00;5.60;;;;;13.19;49.73;101132.16;2056041;28;45953;-63
2023/03/29 01:17:14;;;;;;;;;10.00;9.80;;;;;13.20;50.33;101123.25;2055776;28;47256;-63
2023/03/29 01:18:15;;;;;;;;;5.40;5.40;;;;;13.19;50.27;101124.19;2055071;28;46835;-64
2023/03/29 01:19:20;;;;;;;;;7.50;7.50;;;;;13.18;49.98;101122.44;2056039;28;46495;-63
2023/03/29 01:20:44;;;;;;;;;10.00;9.00;;;;;13.19;50.02;101116.19;2055261;28;46792;-61
2023/03/29 01:21:51;;;;;;;;;6.00;6.00;;;;;13.20;50.28;101125.06;2047532;28;46674;-64
2023/03/29 01:23:12;;;;;;;;;7.80;7.80;;;;;13.19;50.13;101118.84;2058665;28;46521;-63
2023/03/29 01:24:34;;;;;;;;;8.80;7.60;;;;;13.19;50.13;101129.50;2061823;28;46485;-64
2023/03/29 01:25:59;;;;;;;;;6.40;5.20;;;;;13.18;49.95;101130.44;2063134;28;46916;-64
2023/03/29 01:27:08;;;;;;;;;9.40;8.40;;;;;13.17;50.00;101117.97;2055192;28;46413;-63
2023/03/29 01:28:17;;;;;;;;;10.00;9.60;;;;;13.16;50.09;101128.69;2062158;28;46571;-64
2023/03/29 01:29:27;;;;;;;;;7.00;7.00;;;;;13.16;50.23;101123.34;2055724;28;45681;-63
2023/03/29 01:30:34;;;;;;;;;12.00;10.60;;;;;13.14;50.18;101126.06;2055368;28;46681;-62
2023/03/29 01:31:47;;;;;;;;;7.40;7.20;;;;;13.15;50.24;101124.28;2055410;28;46329;-63
2023/03/29 01:32:57;;;;;;;;;8.00;8.00;;;;;13.15;50.19;101110.94;2047404;28;47156;-62
2023/03/29 01:34:04;;;;;;;;;7.00;7.00;;;;;13.15;50.17;101106.50;2052405;28;45715;-63
2023/03/29 01:35:12;;;;;;;;;9.00;9.00;;;;;13.15;50.25;101108.28;2063316;28;46261;-63
2023/03/29 01:36:25;;;;;;;;;7.00;6.00;;;;;13.14;50.31;101110.06;2047108;28;46562;-64
2023/03/29 01:37:31;;;;;;;;;9.00;7.00;;;;;13.13;50.35;101105.66;2052629;28;46525;-63
2023/03/29 01:38:42;;;;;;;;;6.00;6.00;;;;;13.13;50.33;101110.13;2055647;28;47013;-63
2023/03/29 01:39:42;;;;;;;;;10.00;8.20;;;;;13.13;50.41;101108.31;2055444;28;46339;-62
2023/03/29 01:40:43;;;;;;;;;11.25;9.00;;;;;13.13;50.42;101108.31;2055155;28;46277;-63
2023/03/29 01:42:00;;;;;;;;;7.00;7.00;;;;;13.13;50.45;101108.31;2055043;28;46318;-63
2023/03/29 01:43:20;;;;;;;;;10.00;8.80;;;;;13.12;50.29;101109.25;2055169;28;46911;-62
2023/03/29 01:44:48;;;;;;;;;8.40;7.20;;;;;13.11;50.44;101109.28;2055414;28;46559;-63
2023/03/29 01:45:59;;;;;;;;;9.60;8.60;;;;;13.10;50.50;101116.41;2055114;28;46830;-63
2023/03/29 01:47:16;;;;;;;;;8.40;8.40;;;;;13.12;50.49;101122.56;2055063;28;46991;-63
2023/03/29 01:48:27;;;;;;;;;9.20;8.80;;;;;13.12;50.53;101119.91;2054903;28;46568;-63
2023/03/29 01:49:36;;;;;;;;;7.80;7.80;;;;;13.13;50.48;101121.66;2059240;28;46159;-62
2023/03/29 01:50:57;;;;;;;;;10.00;9.40;;;;;13.12;50.77;101119.91;2105542;28;47087;-63
2023/03/29 01:52:12;;;;;;;;;7.00;6.80;;;;;13.13;50.70;101113.66;2105601;28;46610;-63
2023/03/29 01:53:19;;;;;;;;;9.00;9.00;;;;;13.12;50.68;101111.03;2108042;27;46290;-63
2023/03/29 01:54:24;;;;;;;;;12.00;11.00;;;;;13.12;50.68;101117.25;2113878;27;46452;-64
2023/03/29 01:55:31;;;;;;;;;8.20;8.20;;;;;13.12;50.76;101108.38;2113873;27;46309;-63
2023/03/29 01:56:36;;;;;;;;;9.00;9.00;;;;;13.14;50.64;101109.19;2114236;27;46844;-63
2023/03/29 01:57:41;;;;;;;;;10.00;10.00;;;;;13.15;50.72;101113.63;2113772;27;47028;-64
2023/03/29 01:58:46;;;;;;;;;8.60;8.60;;;;;13.14;50.83;101106.53;2114185;27;46252;-62
2023/03/29 01:59:48;;;;;;;;;8.60;8.60;;;;;13.14;50.52;101104.75;2112892;27;46926;-64
2023/03/29 02:00:52;;;;;;;;;8.20;8.20;;;;;13.15;50.67;101111.81;2105685;28;45732;-65
2023/03/29 02:01:58;;;;;;;;;7.20;7.20;;;;;13.16;50.64;101113.56;2106383;27;46246;-64
2023/03/29 02:03:05;;;;;;;;;7.00;7.00;;;;;13.17;50.63;101114.44;2106178;27;46764;-63
2023/03/29 02:04:12;;;;;;;;;8.40;7.80;;;;;13.18;50.73;101111.78;2096837;28;46477;-62
2023/03/29 02:05:15;;;;;;;;;8.80;8.80;;;;;13.19;50.71;101113.53;2103706;27;46778;-62
2023/03/29 02:06:20;;;;;;;;;11.60;10.20;;;;;13.20;50.77;101115.25;2113921;27;46021;-64
2023/03/29 02:07:25;;;;;;;;;8.60;8.60;;;;;13.22;50.80;101113.47;2104876;28;47382;-63
2023/03/29 02:08:27;;;;;;;;;8.00;8.00;;;;;13.24;50.71;101113.41;2099920;28;48039;-63
2023/03/29 02:09:29;;;;;;;;;11.60;10.60;;;;;13.25;50.60;101112.50;2105998;27;46596;-63
2023/03/29 02:10:31;;;;;;;;;8.60;7.80;;;;;13.27;50.55;101112.47;2105420;28;46333;-64
2023/03/29 02:11:33;;;;;;;;;12.20;10.60;;;;;13.28;50.78;101108.88;2105743;27;46722;-64
2023/03/29 02:12:34;;;;;;;;;7.80;7.80;;;;;13.29;50.82;101107.94;2105836;28;46752;-62
2023/03/29 02:13:35;;;;;;;;;9.80;9.80;;;;;13.30;50.70;101115.03;2107706;27;47124;-62
2023/03/29 02:14:36;;;;;;;;;8.75;8.25;;;;;13.29;50.54;101113.28;2105782;27;46713;-63
2023/03/29 02:15:37;;;;;;;;;8.00;8.00;;;;;13.31;50.79;101114.13;2096711;28;46808;-63
2023/03/29 02:16:38;;;;;;;;;7.80;7.60;;;;;13.31;50.78;101109.66;2097136;28;46300;-62
2023/03/29 02:17:38;;;;;;;;;8.75;8.75;;;;;13.31;50.85;101112.31;2088767;28;46473;-63
2023/03/29 02:18:41;;;;;;;;;8.75;8.75;;;;;13.31;50.89;101111.44;2096121;28;45874;-62
2023/03/29 02:19:44;;;;;;;;;11.40;8.40;;;;;13.31;50.89;101109.66;2108085;27;46504;-63
2023/03/29 02:20:49;;;;;;;;;8.80;8.80;;;;;13.33;50.68;101104.28;2106263;27;46540;-61
2023/03/29 02:22:03;;;;;;;;;11.00;11.00;;;;;13.32;50.84;101102.53;2113769;27;46637;-62
2023/03/29 02:23:08;;;;;;;;;8.00;8.00;;;;;13.30;50.85;101099.03;2108020;27;45926;-63
2023/03/29 02:24:14;;;;;;;;;10.20;7.80;;;;;13.29;50.79;101098.16;2106201;27;46541;-61
2023/03/29 02:25:16;;;;;;;;;9.80;9.80;;;;;13.28;50.75;101101.75;2105391;28;46804;-62
2023/03/29 02:26:17;;;;;;;;;10.60;9.00;;;;;13.28;50.81;101106.22;2105887;27;47377;-63
2023/03/29 02:27:18;;;;;;;;;9.80;9.80;;;;;13.24;50.93;101098.31;2106057;27;45160;-63
2023/03/29 02:28:21;;;;;;;;;11.50;8.25;;;;;13.26;50.91;101103.59;2096360;28;46156;-62
2023/03/29 02:29:21;;;;;;;;;8.20;8.20;;;;;13.25;50.86;101102.72;2096408;28;46885;-62
2023/03/29 02:30:26;;;;;;;;;11.00;11.00;;;;;13.25;50.94;101100.03;2105709;27;46733;-63
2023/03/29 02:31:32;;;;;;;;;9.00;8.80;;;;;13.27;50.90;101096.47;2105810;28;45970;-63
2023/03/29 02:32:44;;;;;;;;;11.00;9.00;;;;;13.27;51.06;101092.00;2105989;27;46163;-62
2023/03/29 02:34:05;;;;;;;;;9.40;9.40;;;;;13.25;51.03;101091.19;2106012;27;46325;-63
2023/03/29 02:35:13;;;;;;;;;8.80;7.60;;;;;13.23;50.94;101088.56;2105188;28;45724;-61
2023/03/29 02:36:21;;;;;;;;;8.00;8.00;;;;;13.21;50.93;101082.41;2096536;28;46743;-63
2023/03/29 02:37:25;;;;;;;;;8.20;7.00;;;;;13.20;50.92;101080.63;2102399;27;46093;-61
2023/03/29 02:38:26;;;;;;;;;10.20;8.00;;;;;13.18;50.87;101074.47;2109990;27;46721;-61
2023/03/29 02:39:31;;;;;;;;;14.60;11.80;;;;;13.18;51.09;101076.22;2096890;28;46727;-62
2023/03/29 02:40:34;;;;;;;;;10.60;10.00;;;;;13.20;51.14;101085.06;2097598;28;46459;-65
2023/03/29 02:41:38;;;;;;;;;10.00;9.20;;;;;13.21;51.36;101092.16;2105161;28;46529;-60
2023/03/29 02:42:43;;;;;;;;;9.80;9.40;;;;;13.21;51.21;101078.81;2096580;28;46352;-62
2023/03/29 02:43:47;;;;;;;;;8.40;8.40;;;;;13.22;51.14;101088.59;2097114;28;46694;-63
2023/03/29 02:44:51;;;;;;;;;7.40;7.40;;;;;13.21;51.19;101078.81;2105583;28;46403;-62
2023/03/29 02:45:52;;;;;;;;;7.20;7.20;;;;;13.22;50.92;101072.63;2113841;27;45206;-62
2023/03/29 02:46:56;;;;;;;;;11.60;10.80;;;;;13.21;51.15;101068.16;2110309;27;46495;-63
2023/03/29 02:48:02;;;;;;;;;11.60;11.20;;;;;13.19;51.29;101068.22;2105363;28;46489;-62
2023/03/29 02:49:04;;;;;;;;;11.20;11.20;;;;;13.19;51.31;101068.22;2112315;27;45729;-63
2023/03/29 02:50:05;;;;;;;;;11.60;11.00;;;;;13.18;51.51;101066.47;2107559;27;46528;-64
2023/03/29 02:51:14;;;;;;;;;10.60;10.60;;;;;13.17;51.50;101064.69;2113548;27;46518;-64
2023/03/29 02:52:21;;;;;;;;;10.40;10.40;;;;;13.18;51.41;101054.91;2107082;27;46662;-63
2023/03/29 02:53:27;;;;;;;;;10.20;9.00;;;;;13.16;51.61;101059.41;2107261;27;46136;-62
2023/03/29 02:54:30;;;;;;;;;9.20;9.20;;;;;13.15;51.59;101063.00;2113866;27;46982;-63
2023/03/29 02:55:33;;;;;;;;;11.00;11.00;;;;;13.14;51.47;101067.44;2113386;27;46965;-63
2023/03/29 02:56:46;;;;;;;;;12.40;11.00;;;;;13.14;51.60;101067.44;2113383;27;46501;-63
2023/03/29 02:57:47;;;;;;;;;9.00;9.00;;;;;13.15;51.53;101069.19;2114258;27;46038;-63
2023/03/29 02:58:47;;;;;;;;;10.50;10.50;;;;;13.15;51.71;101066.53;2113199;27;46197;-62
2023/03/29 02:59:48;;;;;;;;;9.00;8.75;;;;;13.16;51.75;101056.75;2113269;27;46221;-63
2023/03/29 03:00:49;;;;;;;;;9.50;9.50;;;;;13.17;51.80;101061.16;2095189;28;46326;-62
2023/03/29 03:01:51;;;;;;;;;10.00;10.00;;;;;13.16;51.64;101054.94;2095333;28;46279;-63
2023/03/29 03:02:51;;;;;;;;;11.00;11.00;;;;;13.17;52.05;101056.69;2095806;28;46377;-64
2023/03/29 03:03:52;;;;;;;;;11.25;9.75;;;;;13.16;51.75;101046.94;2095954;28;46236;-62
2023/03/29 03:04:52;;;;;;;;;8.00;8.00;;;;;13.17;51.91;101047.81;2095248;28;46565;-62
2023/03/29 03:05:53;;;;;;;;;9.75;9.75;;;;;13.18;51.83;101052.22;2095729;28;46433;-64
2023/03/29 03:06:53;;;;;;;;;12.50;12.50;;;;;13.18;51.89;101052.22;2095362;28;46692;-64
2023/03/29 03:07:54;;;;;;;;;11.00;11.00;;;;;13.19;51.89;101044.22;2095550;28;46710;-62
2023/03/29 03:08:54;;;;;;;;;10.00;8.50;;;;;13.19;51.91;101057.56;2096296;28;45815;-64
2023/03/29 03:09:54;;;;;;;;;11.25;11.25;;;;;13.20;51.81;101061.09;2095731;28;46417;-65
2023/03/29 03:10:55;;;;;;;;;9.75;9.75;;;;;13.20;51.87;101061.97;2095367;28;46428;-64
2023/03/29 03:11:55;;;;;;;;;10.25;9.75;;;;;13.21;51.86;101062.84;2096002;28;46415;-63
2023/03/29 03:12:56;;;;;;;;;11.25;10.75;;;;;13.20;52.04;101061.97;2094558;28;46169;-63
2023/03/29 03:13:56;;;;;;;;;11.00;11.00;;;;;13.20;52.01;101063.75;2087545;28;46210;-64
2023/03/29 03:14:57;;;;;;;;;9.50;9.50;;;;;13.21;52.15;101065.50;2087663;28;45423;-63
2023/03/29 03:15:57;;;;;;;;;12.75;12.75;;;;;13.20;52.07;101064.63;2080142;28;46137;-63
2023/03/29 03:16:57;;;;;;;;;19.25;19.25;;;;;13.21;52.28;101071.75;2079157;28;46327;-61
2023/03/29 03:17:58;;;;;;;;;14.25;13.00;;;;;13.20;52.17;101069.09;2092982;28;47017;-62
2023/03/29 03:18:59;;;;;;;;;12.50;12.50;;;;;13.20;52.21;101072.63;2095840;28;46678;-63
2023/03/29 03:20:00;;;;;;;;;12.60;12.60;;;;;13.19;52.13;101062.88;2095301;28;46393;-63
2023/03/29 03:21:00;;;;;;;;;13.00;13.00;;;;;13.19;52.26;101059.34;2089538;28;46694;-63
2023/03/29 03:22:01;;;;;;;;;10.50;9.50;;;;;13.18;52.09;101061.13;2087791;28;46485;-64
2023/03/29 03:23:02;;;;;;;;;10.00;10.00;;;;;13.19;52.15;101067.34;2087797;28;45767;-62
2023/03/29 03:24:04;;;;;;;;;9.60;9.60;;;;;13.19;52.38;101068.22;2079668;28;46519;-63
2023/03/29 03:25:05;;;;;;;;;9.60;9.00;;;;;13.18;52.29;101069.13;2079390;28;47028;-62
2023/03/29 03:26:05;;;;;;;;;9.75;9.75;;;;;13.19;52.30;101062.88;2062706;28;46798;-63
2023/03/29 03:27:07;;;;;;;;;11.50;11.50;;;;;13.17;52.45;101062.03;2062600;28;46846;-63
2023/03/29 03:28:08;;;;;;;;;9.80;9.80;;;;;13.16;52.15;101057.59;2087426;28;46412;-62
2023/03/29 03:29:08;;;;;;;;;10.00;9.75;;;;;13.15;52.28;101058.53;2087702;28;46190;-62
2023/03/29 03:30:09;;;;;;;;;12.00;10.25;;;;;13.15;52.37;101047.88;2087293;28;46358;-63
2023/03/29 03:31:09;;;;;;;;;11.20;10.80;;;;;13.16;52.38;101049.63;2087811;28;46123;-62
2023/03/29 03:32:11;;;;;;;;;10.50;9.00;;;;;13.16;52.19;101041.63;2090528;28;45590;-61
2023/03/29 03:33:11;;;;;;;;;10.00;9.40;;;;;13.19;52.30;101038.03;2105642;28;46134;-62
2023/03/29 03:34:12;;;;;;;;;12.00;11.00;;;;;13.19;52.40;101038.91;2105454;27;46717;-63
2023/03/29 03:35:12;;;;;;;;;10.75;10.00;;;;;13.20;52.49;101047.75;2078205;28;46400;-62
2023/03/29 03:36:12;;;;;;;;;12.75;10.00;;;;;13.21;52.24;101038.84;2078900;28;46308;-62
2023/03/29 03:37:14;;;;;;;;;10.00;10.00;;;;;13.22;52.19;101045.97;2105333;27;46232;-62
2023/03/29 03:38:15;;;;;;;;;9.40;9.40;;;;;13.24;52.43;101057.44;2104825;28;46296;-62
2023/03/29 03:39:16;;;;;;;;;11.20;11.20;;;;;13.24;52.22;101054.78;2105538;27;46299;-63
2023/03/29 03:40:16;;;;;;;;;13.50;9.00;;;;;13.25;52.50;101060.06;2106589;27;46338;-63
2023/03/29 03:41:16;;;;;;;;;12.25;10.25;;;;;13.25;52.59;101061.88;2114020;27;45681;-63
2023/03/29 03:42:17;;;;;;;;;8.50;8.50;;;;;13.26;52.44;101063.59;2112824;27;46504;-64
2023/03/29 03:43:17;;;;;;;;;12.00;12.00;;;;;13.25;52.57;101065.41;2113867;27;45884;-63
2023/03/29 03:44:18;;;;;;;;;10.00;10.00;;;;;13.26;52.59;101066.28;2113128;27;45670;-63
2023/03/29 03:45:19;;;;;;;;;10.00;10.00;;;;;13.27;52.41;101061.81;2113024;27;45660;-63
2023/03/29 03:46:19;;;;;;;;;12.40;11.40;;;;;13.26;52.79;101050.28;2113465;27;46943;-64
2023/03/29 03:47:19;;;;;;;;;12.00;10.25;;;;;13.26;52.51;101055.63;2113448;27;45942;-64
2023/03/29 03:48:20;;;;;;;;;12.25;10.00;;;;;13.27;52.61;101052.03;2113412;27;45840;-61
2023/03/29 03:49:21;;;;;;;;;10.00;10.00;;;;;13.27;52.52;101046.69;2109757;27;46585;-64
2023/03/29 03:50:23;;;;;;;;;11.00;10.40;;;;;13.28;52.43;101058.22;2109794;27;45957;-63
2023/03/29 03:51:23;;;;;;;;;10.40;10.40;;;;;13.28;52.49;101058.22;2104171;28;47108;-64
2023/03/29 03:52:24;;;;;;;;;8.75;8.75;;;;;13.26;52.63;101058.28;2096169;28;46725;-63
2023/03/29 03:53:26;;;;;;;;;10.25;10.25;;;;;13.27;52.67;101053.81;2107466;27;45959;-65
2023/03/29 03:54:26;;;;;;;;;9.20;9.20;;;;;13.28;52.52;101060.91;2113655;27;46821;-63
2023/03/29 03:55:28;;;;;;;;;10.75;10.75;;;;;13.28;52.69;101052.91;2112575;27;46354;-62
2023/03/29 03:56:29;;;;;;;;;10.40;10.40;;;;;13.28;52.63;101055.56;2113115;27;45599;-64
2023/03/29 03:57:31;;;;;;;;;9.00;8.75;;;;;13.28;52.78;101060.91;2104684;28;45817;-63
2023/03/29 03:58:32;;;;;;;;;11.60;10.80;;;;;13.29;52.73;101059.97;2104325;27;46697;-63
2023/03/29 03:59:32;;;;;;;;;9.00;8.75;;;;;13.30;52.53;101054.59;2113462;27;46315;-62
2023/03/29 04:00:33;;;;;;;;;10.75;10.75;;;;;13.29;52.75;101047.53;2113073;27;46055;-63
2023/03/29 04:01:34;;;;;;;;;10.25;10.25;;;;;13.30;52.73;101046.59;2113085;27;45483;-63
2023/03/29 04:02:34;;;;;;;;;11.50;10.00;;;;;13.31;52.80;101055.47;2113602;27;45718;-63
2023/03/29 04:03:36;;;;;;;;;11.75;10.25;;;;;13.32;52.74;101057.22;2106230;27;46389;-65
2023/03/29 04:04:36;;;;;;;;;11.40;10.40;;;;;13.30;52.90;101045.72;2105877;27;46187;-62
2023/03/29 04:05:41;;;;;;;;;10.25;9.75;;;;;13.30;52.76;101051.06;2104690;28;45977;-62
2023/03/29 04:06:42;;;;;;;;;11.60;9.80;;;;;13.30;52.91;101059.94;2104282;27;47043;-63
2023/03/29 04:07:43;;;;;;;;;11.20;11.20;;;;;13.29;52.97;101057.31;2113122;27;46871;-64
2023/03/29 04:08:43;;;;;;;;;8.25;8.25;;;;;13.28;53.02;101053.78;2104214;28;46376;-63
2023/03/29 04:09:44;;;;;;;;;11.75;11.25;;;;;13.29;53.10;101057.31;2103543;28;46595;-62
2023/03/29 04:10:52;;;;;;;;;11.00;11.00;;;;;13.30;52.91;101056.41;2113432;27;46751;-63
2023/03/29 04:11:53;;;;;;;;;11.40;11.40;;;;;13.30;53.08;101051.06;2112683;27;46742;-63
2023/03/29 04:12:53;;;;;;;;;11.75;11.75;;;;;13.32;53.01;101054.56;2112235;27;46748;-62
2023/03/29 04:13:53;;;;;;;;;11.50;9.50;;;;;13.31;53.15;101053.69;2096639;28;46643;-63
2023/03/29 04:14:54;;;;;;;;;11.00;10.50;;;;;13.33;53.10;101050.97;2102085;28;45406;-63
2023/03/29 04:15:55;;;;;;;;;10.75;9.00;;;;;13.34;53.00;101047.38;2112959;27;45510;-63
2023/03/29 04:16:55;;;;;;;;;11.60;11.60;;;;;13.34;53.02;101036.72;2113462;27;46946;-62
2023/03/29 04:17:57;;;;;;;;;9.00;8.50;;;;;13.35;53.21;101047.38;2108115;27;46809;-62
2023/03/29 04:18:57;;;;;;;;;11.00;9.60;;;;;13.36;53.41;101035.78;2104877;28;46747;-63
2023/03/29 04:20:01;;;;;;;;;10.25;10.25;;;;;13.36;52.93;101035.78;2113476;27;45790;-64
2023/03/29 04:21:01;;;;;;;;;12.80;11.80;;;;;13.37;53.19;101042.88;2106367;27;47003;-65
2023/03/29 04:22:01;;;;;;;;;13.25;11.00;;;;;13.36;53.36;101038.44;2104998;28;46468;-64
2023/03/29 04:23:02;;;;;;;;;12.75;11.50;;;;;13.37;53.13;101039.31;2105218;27;46291;-64
2023/03/29 04:24:02;;;;;;;;;10.00;10.00;;;;;13.38;53.31;101038.41;2106503;27;45977;-63
2023/03/29 04:25:04;;;;;;;;;13.50;11.50;;;;;13.39;53.11;101034.81;2113466;27;46423;-64
2023/03/29 04:26:05;;;;;;;;;13.40;10.00;;;;;13.39;53.35;101029.50;2107860;27;46870;-64
2023/03/29 04:27:05;;;;;;;;;10.20;10.20;;;;;13.38;53.39;101028.63;2105155;27;46131;-63
2023/03/29 04:28:06;;;;;;;;;9.50;9.50;;;;;13.37;53.34;101032.22;2104737;27;46579;-64
2023/03/29 04:29:06;;;;;;;;;8.25;8.00;;;;;13.36;53.41;101030.47;2104388;27;46801;-64
2023/03/29 04:30:08;;;;;;;;;10.50;10.50;;;;;13.37;53.17;101034.00;2104210;27;46531;-62
2023/03/29 04:31:13;;;;;;;;;7.20;7.20;;;;;13.38;53.43;101039.28;2111495;27;46709;-63
2023/03/29 04:32:13;;;;;;;;;9.40;9.40;;;;;13.40;53.62;101033.91;2103310;28;46685;-63
2023/03/29 04:33:14;;;;;;;;;9.00;8.50;;;;;13.40;53.58;101039.22;2104219;28;46715;-63
2023/03/29 04:34:15;;;;;;;;;10.00;10.00;;;;;13.41;53.56;101036.53;2112157;27;45173;-62
2023/03/29 04:35:15;;;;;;;;;9.75;9.25;;;;;13.42;53.65;101035.59;2103854;28;45988;-63
2023/03/29 04:36:15;;;;;;;;;10.00;10.00;;;;;13.43;53.34;101033.81;2104296;28;46536;-62
2023/03/29 04:37:20;;;;;;;;;10.00;7.50;;;;;13.43;53.46;101039.13;2112442;27;46669;-62
2023/03/29 04:38:25;;;;;;;;;7.20;7.20;;;;;13.44;53.42;101040.88;2109741;27;46143;-62
2023/03/29 04:39:33;;;;;;;;;10.50;10.50;;;;;13.44;53.36;101041.75;2112614;27;47037;-63
2023/03/29 04:40:33;;;;;;;;;9.20;9.20;;;;;13.44;53.48;101043.56;2112783;27;46375;-63
2023/03/29 04:41:34;;;;;;;;;9.50;9.50;;;;;13.43;53.64;101041.81;2113410;27;46243;-63
2023/03/29 04:42:37;;;;;;;;;8.25;8.25;;;;;13.42;53.72;101046.25;2112450;27;46903;-64
2023/03/29 04:43:40;;;;;;;;;10.80;10.80;;;;;13.40;53.73;101037.44;2112957;27;47044;-62
2023/03/29 04:44:42;;;;;;;;;11.60;10.00;;;;;13.41;53.90;101039.19;2112936;27;46757;-62
2023/03/29 04:45:42;;;;;;;;;10.00;10.00;;;;;13.41;53.74;101036.53;2112133;27;45919;-61
2023/03/29 04:46:43;;;;;;;;;8.50;8.50;;;;;13.41;53.87;101032.97;2110892;27;46283;-62
2023/03/29 04:47:44;;;;;;;;;11.00;11.00;;;;;13.41;53.94;101032.97;2104785;28;46854;-62
2023/03/29 04:48:44;;;;;;;;;12.00;11.00;;;;;13.40;54.00;101032.09;2104639;27;46675;-62
2023/03/29 04:49:45;;;;;;;;;8.00;8.00;;;;;13.40;54.08;101032.09;2104962;27;46669;-61
2023/03/29 04:50:46;;;;;;;;;9.25;9.25;;;;;13.41;54.05;101036.53;2112888;27;46728;-62
2023/03/29 04:51:46;;;;;;;;;10.00;10.00;;;;;13.41;54.30;101032.97;2109360;27;46997;-63
2023/03/29 04:52:49;;;;;;;;;9.25;9.00;;;;;13.41;54.07;101028.53;2104627;28;46660;-63